sensor_id;sensor_type;location;lat;lon;timestamp;P1;durP1;ratioP1;P2;durP2;ratioP2
60853;SDS011;48554;50.766;2.900;2022-08-19T00:00:59;8.13;;;4.60;;
60853;SDS011;48554;50.766;2.900;2022-08-19T00:03:19;8.97;;;4.77;;
60853;SDS011;48554;50.766;2.900;2022-08-19T00:05:39;8.23;;;4.77;;
60853;SDS011;48554;50.766;2.900;2022-08-19T00:07:59;9.70;;;4.73;;
60853;SDS011;48554;50.766;2.900;2022-08-19T00:10:20;7.67;;;4.53;;
60853;SDS011;48554;50.766;2.900;2022-08-19T00:12:40;7.43;;;4.33;;
60853;SDS011;48554;50.766;2.900;2022-08-19T00:15:02;8.57;;;4.05;;
60853;SDS011;48554;50.766;2.900;2022-08-19T00:17:23;7.35;;;3.97;;
60853;SDS011;48554;50.766;2.900;2022-08-19T00:19:43;7.50;;;4.13;;
60853;SDS011;48554;50.766;2.900;2022-08-19T00:22:04;8.60;;;4.00;;
60853;SDS011;48554;50.766;2.900;2022-08-19T00:24:25;8.10;;;3.90;;
60853;SDS011;48554;50.766;2.900;2022-08-19T00:26:46;8.05;;;3.97;;
60853;SDS011;48554;50.766;2.900;2022-08-19T00:29:07;8.00;;;4.00;;
60853;SDS011;48554;50.766;2.900;2022-08-19T00:31:28;6.35;;;3.45;;
60853;SDS011;48554;50.766;2.900;2022-08-19T00:33:48;10.17;;;3.50;;
60853;SDS011;48554;50.766;2.900;2022-08-19T00:36:09;9.20;;;4.50;;
60853;SDS011;48554;50.766;2.900;2022-08-19T00:38:30;10.07;;;4.20;;
60853;SDS011;48554;50.766;2.900;2022-08-19T00:40:50;8.23;;;3.73;;
60853;SDS011;48554;50.766;2.900;2022-08-19T00:43:11;6.60;;;3.33;;
60853;SDS011;48554;50.766;2.900;2022-08-19T00:45:32;8.82;;;4.30;;
60853;SDS011;48554;50.766;2.900;2022-08-19T00:47:52;9.23;;;4.10;;
60853;SDS011;48554;50.766;2.900;2022-08-19T00:50:13;6.83;;;3.77;;
60853;SDS011;48554;50.766;2.900;2022-08-19T00:52:38;8.52;;;3.63;;
60853;SDS011;48554;50.766;2.900;2022-08-19T00:55:03;7.43;;;3.40;;
60853;SDS011;48554;50.766;2.900;2022-08-19T00:57:35;7.70;;;3.58;;
60853;SDS011;48554;50.766;2.900;2022-08-19T01:00:00;7.43;;;3.63;;
60853;SDS011;48554;50.766;2.900;2022-08-19T01:02:21;7.95;;;3.85;;
60853;SDS011;48554;50.766;2.900;2022-08-19T01:04:41;10.93;;;3.67;;
60853;SDS011;48554;50.766;2.900;2022-08-19T01:07:02;7.50;;;3.17;;
60853;SDS011;48554;50.766;2.900;2022-08-19T01:09:22;6.43;;;3.10;;
60853;SDS011;48554;50.766;2.900;2022-08-19T01:11:43;5.73;;;2.90;;
60853;SDS011;48554;50.766;2.900;2022-08-19T01:14:05;5.13;;;3.13;;
60853;SDS011;48554;50.766;2.900;2022-08-19T01:16:27;5.97;;;2.90;;
60853;SDS011;48554;50.766;2.900;2022-08-19T01:18:48;7.20;;;2.72;;
60853;SDS011;48554;50.766;2.900;2022-08-19T01:21:20;8.97;;;3.70;;
60853;SDS011;48554;50.766;2.900;2022-08-19T01:23:43;7.93;;;3.10;;
60853;SDS011;48554;50.766;2.900;2022-08-19T01:28:25;5.28;;;3.05;;
60853;SDS011;48554;50.766;2.900;2022-08-19T01:30:47;7.18;;;3.10;;
60853;SDS011;48554;50.766;2.900;2022-08-19T01:33:07;6.70;;;3.43;;
60853;SDS011;48554;50.766;2.900;2022-08-19T01:35:29;7.77;;;3.43;;
60853;SDS011;48554;50.766;2.900;2022-08-19T01:37:52;6.22;;;2.65;;
60853;SDS011;48554;50.766;2.900;2022-08-19T01:40:15;8.15;;;3.72;;
60853;SDS011;48554;50.766;2.900;2022-08-19T01:42:36;6.78;;;2.65;;
60853;SDS011;48554;50.766;2.900;2022-08-19T01:44:56;6.37;;;2.70;;
60853;SDS011;48554;50.766;2.900;2022-08-19T01:47:17;7.13;;;3.20;;
60853;SDS011;48554;50.766;2.900;2022-08-19T01:49:37;6.77;;;3.40;;
60853;SDS011;48554;50.766;2.900;2022-08-19T01:51:58;7.63;;;3.17;;
60853;SDS011;48554;50.766;2.900;2022-08-19T01:54:21;7.45;;;3.00;;
60853;SDS011;48554;50.766;2.900;2022-08-19T01:56:43;11.15;;;2.92;;
60853;SDS011;48554;50.766;2.900;2022-08-19T01:59:05;9.83;;;2.33;;
60853;SDS011;48554;50.766;2.900;2022-08-19T02:01:31;5.68;;;2.85;;
60853;SDS011;48554;50.766;2.900;2022-08-19T02:03:51;8.07;;;2.87;;
60853;SDS011;48554;50.766;2.900;2022-08-19T02:06:11;6.93;;;2.73;;
60853;SDS011;48554;50.766;2.900;2022-08-19T02:08:34;6.30;;;2.67;;
60853;SDS011;48554;50.766;2.900;2022-08-19T02:10:56;6.00;;;2.25;;
60853;SDS011;48554;50.766;2.900;2022-08-19T02:13:16;8.40;;;3.00;;
60853;SDS011;48554;50.766;2.900;2022-08-19T02:15:37;7.37;;;2.60;;
60853;SDS011;48554;50.766;2.900;2022-08-19T02:17:58;7.63;;;2.80;;
60853;SDS011;48554;50.766;2.900;2022-08-19T02:20:18;5.70;;;2.30;;
60853;SDS011;48554;50.766;2.900;2022-08-19T02:22:39;5.93;;;2.63;;
60853;SDS011;48554;50.766;2.900;2022-08-19T02:24:59;5.25;;;2.28;;
60853;SDS011;48554;50.766;2.900;2022-08-19T02:27:20;6.07;;;2.13;;
60853;SDS011;48554;50.766;2.900;2022-08-19T02:29:41;8.23;;;2.97;;
60853;SDS011;48554;50.766;2.900;2022-08-19T02:32:01;5.80;;;2.43;;
60853;SDS011;48554;50.766;2.900;2022-08-19T02:34:22;5.83;;;2.50;;
60853;SDS011;48554;50.766;2.900;2022-08-19T02:36:43;6.93;;;2.97;;
60853;SDS011;48554;50.766;2.900;2022-08-19T02:39:03;7.67;;;2.20;;
60853;SDS011;48554;50.766;2.900;2022-08-19T02:41:31;8.13;;;2.73;;
60853;SDS011;48554;50.766;2.900;2022-08-19T02:43:56;5.82;;;2.50;;
60853;SDS011;48554;50.766;2.900;2022-08-19T02:46:18;6.13;;;2.35;;
60853;SDS011;48554;50.766;2.900;2022-08-19T02:48:40;5.03;;;2.20;;
60853;SDS011;48554;50.766;2.900;2022-08-19T02:51:00;6.93;;;2.57;;
60853;SDS011;48554;50.766;2.900;2022-08-19T02:53:25;7.00;;;2.83;;
60853;SDS011;48554;50.766;2.900;2022-08-19T02:55:47;6.30;;;2.35;;
60853;SDS011;48554;50.766;2.900;2022-08-19T02:58:07;5.27;;;2.10;;
60853;SDS011;48554;50.766;2.900;2022-08-19T03:00:28;5.33;;;2.43;;
60853;SDS011;48554;50.766;2.900;2022-08-19T03:02:48;6.07;;;2.40;;
60853;SDS011;48554;50.766;2.900;2022-08-19T03:05:08;5.87;;;2.20;;
60853;SDS011;48554;50.766;2.900;2022-08-19T03:07:29;4.80;;;2.22;;
60853;SDS011;48554;50.766;2.900;2022-08-19T03:09:50;6.27;;;1.90;;
60853;SDS011;48554;50.766;2.900;2022-08-19T03:12:10;8.20;;;2.33;;
60853;SDS011;48554;50.766;2.900;2022-08-19T03:14:31;5.47;;;1.90;;
60853;SDS011;48554;50.766;2.900;2022-08-19T03:16:52;5.10;;;2.10;;
60853;SDS011;48554;50.766;2.900;2022-08-19T03:19:13;6.43;;;2.10;;
60853;SDS011;48554;50.766;2.900;2022-08-19T03:21:35;9.02;;;2.38;;
60853;SDS011;48554;50.766;2.900;2022-08-19T03:23:57;7.47;;;2.47;;
60853;SDS011;48554;50.766;2.900;2022-08-19T03:26:19;7.03;;;1.98;;
60853;SDS011;48554;50.766;2.900;2022-08-19T03:28:40;6.07;;;1.80;;
60853;SDS011;48554;50.766;2.900;2022-08-19T03:31:06;3.30;;;1.73;;
60853;SDS011;48554;50.766;2.900;2022-08-19T03:33:30;5.32;;;2.35;;
60853;SDS011;48554;50.766;2.900;2022-08-19T03:36:07;7.13;;;2.42;;
60853;SDS011;48554;50.766;2.900;2022-08-19T03:38:36;5.78;;;2.17;;
60853;SDS011;48554;50.766;2.900;2022-08-19T03:41:01;7.75;;;2.28;;
60853;SDS011;48554;50.766;2.900;2022-08-19T03:43:23;6.10;;;2.00;;
60853;SDS011;48554;50.766;2.900;2022-08-19T03:45:43;4.80;;;1.93;;
60853;SDS011;48554;50.766;2.900;2022-08-19T03:48:04;7.03;;;2.13;;
60853;SDS011;48554;50.766;2.900;2022-08-19T03:50:24;6.83;;;1.77;;
60853;SDS011;48554;50.766;2.900;2022-08-19T03:52:51;8.20;;;1.90;;
60853;SDS011;48554;50.766;2.900;2022-08-19T03:55:11;5.65;;;1.85;;
60853;SDS011;48554;50.766;2.900;2022-08-19T03:57:32;5.93;;;1.77;;
60853;SDS011;48554;50.766;2.900;2022-08-19T04:02:14;6.47;;;2.23;;
60853;SDS011;48554;50.766;2.900;2022-08-19T04:04:34;4.47;;;2.10;;
60853;SDS011;48554;50.766;2.900;2022-08-19T04:06:55;4.97;;;1.73;;
60853;SDS011;48554;50.766;2.900;2022-08-19T04:09:16;5.47;;;2.08;;
60853;SDS011;48554;50.766;2.900;2022-08-19T04:11:38;5.35;;;2.22;;
60853;SDS011;48554;50.766;2.900;2022-08-19T04:14:05;5.72;;;1.88;;
60853;SDS011;48554;50.766;2.900;2022-08-19T04:16:26;7.43;;;2.00;;
60853;SDS011;48554;50.766;2.900;2022-08-19T04:18:47;7.68;;;2.13;;
60853;SDS011;48554;50.766;2.900;2022-08-19T04:21:08;5.63;;;1.75;;
60853;SDS011;48554;50.766;2.900;2022-08-19T04:23:36;4.13;;;1.63;;
60853;SDS011;48554;50.766;2.900;2022-08-19T04:25:56;5.17;;;1.90;;
60853;SDS011;48554;50.766;2.900;2022-08-19T04:28:17;3.30;;;1.70;;
60853;SDS011;48554;50.766;2.900;2022-08-19T04:30:44;4.77;;;1.97;;
60853;SDS011;48554;50.766;2.900;2022-08-19T04:33:07;4.97;;;1.88;;
60853;SDS011;48554;50.766;2.900;2022-08-19T04:35:28;3.97;;;2.00;;
60853;SDS011;48554;50.766;2.900;2022-08-19T04:37:54;4.22;;;2.00;;
60853;SDS011;48554;50.766;2.900;2022-08-19T04:40:14;5.93;;;2.00;;
60853;SDS011;48554;50.766;2.900;2022-08-19T04:42:34;4.83;;;1.93;;
60853;SDS011;48554;50.766;2.900;2022-08-19T04:44:54;4.47;;;1.80;;
60853;SDS011;48554;50.766;2.900;2022-08-19T04:47:14;5.27;;;2.13;;
60853;SDS011;48554;50.766;2.900;2022-08-19T04:49:35;5.87;;;1.87;;
60853;SDS011;48554;50.766;2.900;2022-08-19T04:51:55;5.10;;;2.20;;
60853;SDS011;48554;50.766;2.900;2022-08-19T04:54:16;3.80;;;1.83;;
60853;SDS011;48554;50.766;2.900;2022-08-19T04:56:38;4.93;;;2.20;;
60853;SDS011;48554;50.766;2.900;2022-08-19T04:59:00;4.70;;;1.90;;
60853;SDS011;48554;50.766;2.900;2022-08-19T05:01:22;4.47;;;2.13;;
60853;SDS011;48554;50.766;2.900;2022-08-19T05:03:47;5.88;;;2.08;;
60853;SDS011;48554;50.766;2.900;2022-08-19T05:06:08;4.93;;;2.13;;
60853;SDS011;48554;50.766;2.900;2022-08-19T05:08:30;5.00;;;1.83;;
60853;SDS011;48554;50.766;2.900;2022-08-19T05:10:51;4.37;;;1.97;;
60853;SDS011;48554;50.766;2.900;2022-08-19T05:13:11;4.25;;;1.95;;
60853;SDS011;48554;50.766;2.900;2022-08-19T05:15:31;4.20;;;2.10;;
60853;SDS011;48554;50.766;2.900;2022-08-19T05:17:52;4.67;;;2.10;;
60853;SDS011;48554;50.766;2.900;2022-08-19T05:20:12;4.70;;;2.47;;
60853;SDS011;48554;50.766;2.900;2022-08-19T05:22:32;4.30;;;1.97;;
60853;SDS011;48554;50.766;2.900;2022-08-19T05:24:52;4.03;;;1.70;;
60853;SDS011;48554;50.766;2.900;2022-08-19T05:27:13;5.23;;;2.13;;
60853;SDS011;48554;50.766;2.900;2022-08-19T05:29:33;5.30;;;2.17;;
60853;SDS011;48554;50.766;2.900;2022-08-19T05:31:54;7.50;;;2.05;;
60853;SDS011;48554;50.766;2.900;2022-08-19T05:34:16;8.07;;;2.22;;
60853;SDS011;48554;50.766;2.900;2022-08-19T05:36:39;6.13;;;2.42;;
60853;SDS011;48554;50.766;2.900;2022-08-19T05:39:01;4.85;;;2.03;;
60853;SDS011;48554;50.766;2.900;2022-08-19T05:41:22;6.28;;;2.40;;
60853;SDS011;48554;50.766;2.900;2022-08-19T05:43:43;3.27;;;2.00;;
60853;SDS011;48554;50.766;2.900;2022-08-19T05:46:06;8.30;;;3.47;;
60853;SDS011;48554;50.766;2.900;2022-08-19T05:48:27;4.82;;;2.03;;
60853;SDS011;48554;50.766;2.900;2022-08-19T05:50:47;5.30;;;2.20;;
60853;SDS011;48554;50.766;2.900;2022-08-19T05:53:07;4.27;;;2.40;;
60853;SDS011;48554;50.766;2.900;2022-08-19T05:55:28;4.53;;;2.13;;
60853;SDS011;48554;50.766;2.900;2022-08-19T05:57:48;3.03;;;1.90;;
60853;SDS011;48554;50.766;2.900;2022-08-19T06:00:09;5.63;;;2.00;;
60853;SDS011;48554;50.766;2.900;2022-08-19T06:02:30;7.05;;;2.45;;
60853;SDS011;48554;50.766;2.900;2022-08-19T06:04:50;5.60;;;2.20;;
60853;SDS011;48554;50.766;2.900;2022-08-19T06:07:10;7.03;;;2.10;;
60853;SDS011;48554;50.766;2.900;2022-08-19T06:09:31;6.60;;;2.40;;
60853;SDS011;48554;50.766;2.900;2022-08-19T06:11:55;7.43;;;2.27;;
60853;SDS011;48554;50.766;2.900;2022-08-19T06:14:18;4.82;;;2.15;;
60853;SDS011;48554;50.766;2.900;2022-08-19T06:16:41;5.63;;;2.20;;
60853;SDS011;48554;50.766;2.900;2022-08-19T06:19:03;7.05;;;2.85;;
60853;SDS011;48554;50.766;2.900;2022-08-19T06:21:25;3.47;;;1.88;;
60853;SDS011;48554;50.766;2.900;2022-08-19T06:23:47;4.38;;;2.20;;
60853;SDS011;48554;50.766;2.900;2022-08-19T06:26:11;7.23;;;2.33;;
60853;SDS011;48554;50.766;2.900;2022-08-19T06:28:32;4.25;;;1.60;;
60853;SDS011;48554;50.766;2.900;2022-08-19T06:30:52;4.00;;;1.73;;
60853;SDS011;48554;50.766;2.900;2022-08-19T06:33:12;5.83;;;2.03;;
60853;SDS011;48554;50.766;2.900;2022-08-19T06:35:32;4.20;;;1.77;;
60853;SDS011;48554;50.766;2.900;2022-08-19T06:37:57;2.95;;;1.80;;
60853;SDS011;48554;50.766;2.900;2022-08-19T06:40:18;4.07;;;1.53;;
60853;SDS011;48554;50.766;2.900;2022-08-19T06:42:38;3.57;;;1.93;;
60853;SDS011;48554;50.766;2.900;2022-08-19T06:44:59;5.20;;;1.60;;
60853;SDS011;48554;50.766;2.900;2022-08-19T06:47:20;2.97;;;1.60;;
60853;SDS011;48554;50.766;2.900;2022-08-19T06:49:41;2.35;;;1.23;;
60853;SDS011;48554;50.766;2.900;2022-08-19T06:52:02;4.80;;;1.83;;
60853;SDS011;48554;50.766;2.900;2022-08-19T06:56:44;4.10;;;1.67;;
60853;SDS011;48554;50.766;2.900;2022-08-19T06:59:08;2.27;;;1.43;;
60853;SDS011;48554;50.766;2.900;2022-08-19T07:01:33;2.90;;;1.35;;
60853;SDS011;48554;50.766;2.900;2022-08-19T07:03:55;6.60;;;1.55;;
60853;SDS011;48554;50.766;2.900;2022-08-19T07:06:16;3.37;;;1.23;;
60853;SDS011;48554;50.766;2.900;2022-08-19T07:08:38;2.67;;;1.10;;
60853;SDS011;48554;50.766;2.900;2022-08-19T07:10:58;6.00;;;1.50;;
60853;SDS011;48554;50.766;2.900;2022-08-19T07:13:18;2.13;;;1.17;;
60853;SDS011;48554;50.766;2.900;2022-08-19T07:15:39;3.57;;;1.37;;
60853;SDS011;48554;50.766;2.900;2022-08-19T07:17:59;4.10;;;1.40;;
60853;SDS011;48554;50.766;2.900;2022-08-19T07:20:19;2.13;;;1.20;;
60853;SDS011;48554;50.766;2.900;2022-08-19T07:22:40;5.47;;;1.87;;
60853;SDS011;48554;50.766;2.900;2022-08-19T07:25:00;1.83;;;1.10;;
60853;SDS011;48554;50.766;2.900;2022-08-19T07:27:21;2.70;;;1.20;;
60853;SDS011;48554;50.766;2.900;2022-08-19T07:29:41;2.47;;;1.00;;
60853;SDS011;48554;50.766;2.900;2022-08-19T07:32:02;3.90;;;1.00;;
60853;SDS011;48554;50.766;2.900;2022-08-19T07:34:24;3.85;;;1.02;;
60853;SDS011;48554;50.766;2.900;2022-08-19T07:36:45;6.15;;;1.20;;
60853;SDS011;48554;50.766;2.900;2022-08-19T07:39:08;1.80;;;0.80;;
60853;SDS011;48554;50.766;2.900;2022-08-19T07:41:40;2.13;;;1.00;;
60853;SDS011;48554;50.766;2.900;2022-08-19T07:44:01;4.13;;;1.10;;
60853;SDS011;48554;50.766;2.900;2022-08-19T07:46:21;3.73;;;1.30;;
60853;SDS011;48554;50.766;2.900;2022-08-19T07:48:42;3.73;;;1.30;;
60853;SDS011;48554;50.766;2.900;2022-08-19T07:53:25;3.63;;;1.30;;
60853;SDS011;48554;50.766;2.900;2022-08-19T07:55:46;3.00;;;1.60;;
60853;SDS011;48554;50.766;2.900;2022-08-19T07:58:06;3.73;;;1.30;;
60853;SDS011;48554;50.766;2.900;2022-08-19T08:00:26;3.07;;;1.20;;
60853;SDS011;48554;50.766;2.900;2022-08-19T08:02:46;2.20;;;0.90;;
60853;SDS011;48554;50.766;2.900;2022-08-19T08:05:07;2.80;;;1.17;;
60853;SDS011;48554;50.766;2.900;2022-08-19T08:07:28;2.00;;;0.73;;
60853;SDS011;48554;50.766;2.900;2022-08-19T08:09:48;2.70;;;0.97;;
60853;SDS011;48554;50.766;2.900;2022-08-19T08:12:10;2.20;;;1.07;;
60853;SDS011;48554;50.766;2.900;2022-08-19T08:14:40;1.33;;;0.75;;
60853;SDS011;48554;50.766;2.900;2022-08-19T08:17:04;2.50;;;0.85;;
60853;SDS011;48554;50.766;2.900;2022-08-19T08:19:26;2.03;;;0.80;;
60853;SDS011;48554;50.766;2.900;2022-08-19T08:24:08;0.80;;;0.50;;
60853;SDS011;48554;50.766;2.900;2022-08-19T08:26:29;1.73;;;0.50;;
60853;SDS011;48554;50.766;2.900;2022-08-19T08:28:50;2.10;;;0.70;;
60853;SDS011;48554;50.766;2.900;2022-08-19T08:31:12;3.35;;;0.65;;
60853;SDS011;48554;50.766;2.900;2022-08-19T08:33:32;2.70;;;0.40;;
60853;SDS011;48554;50.766;2.900;2022-08-19T08:35:52;0.83;;;0.40;;
60853;SDS011;48554;50.766;2.900;2022-08-19T08:38:13;1.27;;;0.60;;
60853;SDS011;48554;50.766;2.900;2022-08-19T08:43:03;1.85;;;0.40;;
60853;SDS011;48554;50.766;2.900;2022-08-19T08:45:29;0.47;;;0.30;;
60853;SDS011;48554;50.766;2.900;2022-08-19T08:47:51;1.20;;;0.60;;
60853;SDS011;48554;50.766;2.900;2022-08-19T08:50:22;1.02;;;0.40;;
60853;SDS011;48554;50.766;2.900;2022-08-19T08:52:55;3.00;;;0.45;;
60853;SDS011;48554;50.766;2.900;2022-08-19T08:55:22;3.58;;;0.60;;
60853;SDS011;48554;50.766;2.900;2022-08-19T09:00:10;0.40;;;0.30;;
60853;SDS011;48554;50.766;2.900;2022-08-19T09:02:36;1.23;;;0.40;;
60853;SDS011;48554;50.766;2.900;2022-08-19T09:04:57;0.57;;;0.40;;
60853;SDS011;48554;50.766;2.900;2022-08-19T09:09:51;1.90;;;0.45;;
60853;SDS011;48554;50.766;2.900;2022-08-19T09:14:57;0.98;;;0.30;;
60853;SDS011;48554;50.766;2.900;2022-08-19T09:17:23;1.05;;;0.40;;
60853;SDS011;48554;50.766;2.900;2022-08-19T09:19:52;1.65;;;0.43;;
60853;SDS011;48554;50.766;2.900;2022-08-19T09:22:15;0.95;;;0.32;;
60853;SDS011;48554;50.766;2.900;2022-08-19T09:24:35;0.50;;;0.30;;
60853;SDS011;48554;50.766;2.900;2022-08-19T09:26:55;2.07;;;0.50;;
60853;SDS011;48554;50.766;2.900;2022-08-19T09:29:16;2.93;;;0.60;;
60853;SDS011;48554;50.766;2.900;2022-08-19T09:31:36;1.97;;;0.70;;
60853;SDS011;48554;50.766;2.900;2022-08-19T09:33:56;5.30;;;0.80;;
60853;SDS011;48554;50.766;2.900;2022-08-19T09:36:17;3.60;;;1.10;;
60853;SDS011;48554;50.766;2.900;2022-08-19T09:38:39;5.50;;;2.50;;
60853;SDS011;48554;50.766;2.900;2022-08-19T09:41:07;4.27;;;2.13;;
60853;SDS011;48554;50.766;2.900;2022-08-19T09:43:31;4.78;;;1.95;;
60853;SDS011;48554;50.766;2.900;2022-08-19T09:45:52;3.13;;;1.40;;
60853;SDS011;48554;50.766;2.900;2022-08-19T09:48:12;2.27;;;1.20;;
60853;SDS011;48554;50.766;2.900;2022-08-19T09:50:32;1.97;;;1.10;;
60853;SDS011;48554;50.766;2.900;2022-08-19T09:52:53;3.70;;;1.37;;
60853;SDS011;48554;50.766;2.900;2022-08-19T09:55:13;3.17;;;1.13;;
60853;SDS011;48554;50.766;2.900;2022-08-19T09:57:33;2.97;;;1.13;;
60853;SDS011;48554;50.766;2.900;2022-08-19T09:59:54;2.27;;;1.00;;
60853;SDS011;48554;50.766;2.900;2022-08-19T10:02:14;3.07;;;1.13;;
60853;SDS011;48554;50.766;2.900;2022-08-19T10:04:34;2.10;;;1.00;;
60853;SDS011;48554;50.766;2.900;2022-08-19T10:06:55;0.90;;;0.50;;
60853;SDS011;48554;50.766;2.900;2022-08-19T10:09:16;1.90;;;0.80;;
60853;SDS011;48554;50.766;2.900;2022-08-19T10:11:39;2.67;;;0.90;;
60853;SDS011;48554;50.766;2.900;2022-08-19T10:14:01;1.77;;;0.60;;
60853;SDS011;48554;50.766;2.900;2022-08-19T10:16:22;1.25;;;0.70;;
60853;SDS011;48554;50.766;2.900;2022-08-19T10:18:43;3.50;;;0.88;;
60853;SDS011;48554;50.766;2.900;2022-08-19T10:21:11;2.00;;;0.87;;
60853;SDS011;48554;50.766;2.900;2022-08-19T10:23:37;1.25;;;0.63;;
60853;SDS011;48554;50.766;2.900;2022-08-19T10:26:02;2.22;;;0.70;;
60853;SDS011;48554;50.766;2.900;2022-08-19T10:28:24;1.60;;;0.75;;
60853;SDS011;48554;50.766;2.900;2022-08-19T10:30:44;2.30;;;0.70;;
60853;SDS011;48554;50.766;2.900;2022-08-19T10:33:05;3.00;;;0.80;;
60853;SDS011;48554;50.766;2.900;2022-08-19T10:35:26;0.75;;;0.52;;
60853;SDS011;48554;50.766;2.900;2022-08-19T10:37:46;3.53;;;0.90;;
60853;SDS011;48554;50.766;2.900;2022-08-19T10:40:07;1.90;;;1.00;;
60853;SDS011;48554;50.766;2.900;2022-08-19T10:42:28;1.80;;;0.73;;
60853;SDS011;48554;50.766;2.900;2022-08-19T10:44:48;2.47;;;1.07;;
60853;SDS011;48554;50.766;2.900;2022-08-19T10:47:09;1.80;;;0.70;;
60853;SDS011;48554;50.766;2.900;2022-08-19T10:49:30;1.05;;;0.60;;
60853;SDS011;48554;50.766;2.900;2022-08-19T10:51:51;3.40;;;0.90;;
60853;SDS011;48554;50.766;2.900;2022-08-19T10:54:11;3.20;;;0.90;;
60853;SDS011;48554;50.766;2.900;2022-08-19T10:56:31;2.53;;;1.00;;
60853;SDS011;48554;50.766;2.900;2022-08-19T10:58:52;2.67;;;0.98;;
60853;SDS011;48554;50.766;2.900;2022-08-19T11:01:13;2.47;;;1.00;;
60853;SDS011;48554;50.766;2.900;2022-08-19T11:03:33;5.37;;;1.10;;
60853;SDS011;48554;50.766;2.900;2022-08-19T11:06:00;4.80;;;0.90;;
60853;SDS011;48554;50.766;2.900;2022-08-19T11:08:23;2.22;;;0.88;;
60853;SDS011;48554;50.766;2.900;2022-08-19T11:10:43;1.93;;;0.80;;
60853;SDS011;48554;50.766;2.900;2022-08-19T11:13:03;2.30;;;0.80;;
60853;SDS011;48554;50.766;2.900;2022-08-19T11:15:23;1.57;;;0.70;;
60853;SDS011;48554;50.766;2.900;2022-08-19T11:17:44;3.27;;;0.80;;
60853;SDS011;48554;50.766;2.900;2022-08-19T11:20:04;3.00;;;0.90;;
60853;SDS011;48554;50.766;2.900;2022-08-19T11:22:25;2.90;;;1.20;;
60853;SDS011;48554;50.766;2.900;2022-08-19T11:24:45;3.30;;;0.90;;
60853;SDS011;48554;50.766;2.900;2022-08-19T11:27:06;3.13;;;1.10;;
60853;SDS011;48554;50.766;2.900;2022-08-19T11:29:28;3.58;;;1.00;;
60853;SDS011;48554;50.766;2.900;2022-08-19T11:31:49;3.70;;;1.50;;
60853;SDS011;48554;50.766;2.900;2022-08-19T11:34:11;6.03;;;2.37;;
60853;SDS011;48554;50.766;2.900;2022-08-19T11:36:37;8.50;;;4.03;;
60853;SDS011;48554;50.766;2.900;2022-08-19T11:38:59;7.65;;;3.30;;
60853;SDS011;48554;50.766;2.900;2022-08-19T11:41:21;5.75;;;2.65;;
60853;SDS011;48554;50.766;2.900;2022-08-19T11:43:42;6.15;;;2.67;;
60853;SDS011;48554;50.766;2.900;2022-08-19T11:46:04;7.17;;;2.20;;
60853;SDS011;48554;50.766;2.900;2022-08-19T11:48:26;9.32;;;2.20;;
60853;SDS011;48554;50.766;2.900;2022-08-19T11:50:46;6.90;;;2.43;;
60853;SDS011;48554;50.766;2.900;2022-08-19T11:53:06;8.67;;;3.37;;
60853;SDS011;48554;50.766;2.900;2022-08-19T11:55:26;5.83;;;3.00;;
60853;SDS011;48554;50.766;2.900;2022-08-19T11:57:47;7.17;;;3.23;;
60853;SDS011;48554;50.766;2.900;2022-08-19T12:00:07;5.63;;;2.53;;
60853;SDS011;48554;50.766;2.900;2022-08-19T12:02:28;5.57;;;2.77;;
60853;SDS011;48554;50.766;2.900;2022-08-19T12:04:48;6.70;;;2.80;;
60853;SDS011;48554;50.766;2.900;2022-08-19T12:07:09;4.57;;;2.20;;
60853;SDS011;48554;50.766;2.900;2022-08-19T12:09:29;3.97;;;2.30;;
60853;SDS011;48554;50.766;2.900;2022-08-19T12:11:49;3.77;;;2.03;;
60853;SDS011;48554;50.766;2.900;2022-08-19T12:14:10;6.30;;;2.33;;
60853;SDS011;48554;50.766;2.900;2022-08-19T12:16:32;5.82;;;2.58;;
60853;SDS011;48554;50.766;2.900;2022-08-19T12:18:53;5.60;;;2.37;;
60853;SDS011;48554;50.766;2.900;2022-08-19T12:21:15;6.00;;;2.70;;
60853;SDS011;48554;50.766;2.900;2022-08-19T12:23:38;6.00;;;2.70;;
60853;SDS011;48554;50.766;2.900;2022-08-19T12:25:58;6.80;;;2.50;;
60853;SDS011;48554;50.766;2.900;2022-08-19T12:28:19;6.63;;;2.37;;
60853;SDS011;48554;50.766;2.900;2022-08-19T12:30:40;4.38;;;1.88;;
60853;SDS011;48554;50.766;2.900;2022-08-19T12:33:00;3.87;;;1.73;;
60853;SDS011;48554;50.766;2.900;2022-08-19T12:35:20;4.83;;;2.43;;
60853;SDS011;48554;50.766;2.900;2022-08-19T12:37:41;6.43;;;2.10;;
60853;SDS011;48554;50.766;2.900;2022-08-19T12:40:01;5.73;;;1.40;;
60853;SDS011;48554;50.766;2.900;2022-08-19T12:42:22;4.35;;;1.42;;
60853;SDS011;48554;50.766;2.900;2022-08-19T12:44:43;4.67;;;1.40;;
60853;SDS011;48554;50.766;2.900;2022-08-19T12:47:04;3.88;;;1.35;;
60853;SDS011;48554;50.766;2.900;2022-08-19T12:49:26;4.50;;;1.73;;
60853;SDS011;48554;50.766;2.900;2022-08-19T12:51:47;2.53;;;1.35;;
60853;SDS011;48554;50.766;2.900;2022-08-19T12:54:08;4.03;;;1.17;;
60853;SDS011;48554;50.766;2.900;2022-08-19T12:56:28;1.90;;;0.90;;
60853;SDS011;48554;50.766;2.900;2022-08-19T12:58:48;4.33;;;1.20;;
60853;SDS011;48554;50.766;2.900;2022-08-19T13:01:10;3.63;;;1.10;;
60853;SDS011;48554;50.766;2.900;2022-08-19T13:03:32;2.00;;;0.77;;
60853;SDS011;48554;50.766;2.900;2022-08-19T13:05:53;4.13;;;1.07;;
60853;SDS011;48554;50.766;2.900;2022-08-19T13:08:13;4.10;;;1.17;;
60853;SDS011;48554;50.766;2.900;2022-08-19T13:10:34;3.23;;;1.00;;
60853;SDS011;48554;50.766;2.900;2022-08-19T13:12:56;2.30;;;0.70;;
60853;SDS011;48554;50.766;2.900;2022-08-19T13:15:17;3.65;;;0.90;;
60853;SDS011;48554;50.766;2.900;2022-08-19T13:17:39;1.95;;;0.73;;
60853;SDS011;48554;50.766;2.900;2022-08-19T13:20:00;1.70;;;0.90;;
60853;SDS011;48554;50.766;2.900;2022-08-19T13:22:20;2.50;;;1.07;;
60853;SDS011;48554;50.766;2.900;2022-08-19T13:24:41;1.93;;;0.80;;
60853;SDS011;48554;50.766;2.900;2022-08-19T13:27:01;3.47;;;1.20;;
60853;SDS011;48554;50.766;2.900;2022-08-19T13:29:21;1.23;;;0.53;;
60853;SDS011;48554;50.766;2.900;2022-08-19T13:31:41;2.30;;;0.97;;
60853;SDS011;48554;50.766;2.900;2022-08-19T13:34:02;3.07;;;0.90;;
60853;SDS011;48554;50.766;2.900;2022-08-19T13:36:22;2.60;;;1.13;;
60853;SDS011;48554;50.766;2.900;2022-08-19T13:38:42;5.07;;;1.40;;
60853;SDS011;48554;50.766;2.900;2022-08-19T13:41:04;0.90;;;0.77;;
60853;SDS011;48554;50.766;2.900;2022-08-19T13:43:26;1.75;;;1.13;;
60853;SDS011;48554;50.766;2.900;2022-08-19T13:45:47;1.73;;;1.10;;
60853;SDS011;48554;50.766;2.900;2022-08-19T13:48:09;3.47;;;1.23;;
60853;SDS011;48554;50.766;2.900;2022-08-19T13:50:29;3.57;;;1.30;;
60853;SDS011;48554;50.766;2.900;2022-08-19T13:52:51;2.38;;;1.20;;
60853;SDS011;48554;50.766;2.900;2022-08-19T13:55:12;3.13;;;1.15;;
60853;SDS011;48554;50.766;2.900;2022-08-19T13:57:34;1.83;;;1.00;;
60853;SDS011;48554;50.766;2.900;2022-08-19T13:59:55;1.63;;;1.02;;
60853;SDS011;48554;50.766;2.900;2022-08-19T14:02:16;1.90;;;1.05;;
60853;SDS011;48554;50.766;2.900;2022-08-19T14:04:37;2.47;;;1.13;;
60853;SDS011;48554;50.766;2.900;2022-08-19T14:06:57;2.87;;;1.33;;
60853;SDS011;48554;50.766;2.900;2022-08-19T14:09:17;2.87;;;1.20;;
60853;SDS011;48554;50.766;2.900;2022-08-19T14:11:38;2.80;;;1.17;;
60853;SDS011;48554;50.766;2.900;2022-08-19T14:13:58;1.60;;;0.80;;
60853;SDS011;48554;50.766;2.900;2022-08-19T14:16:18;4.10;;;1.10;;
60853;SDS011;48554;50.766;2.900;2022-08-19T14:18:38;3.23;;;1.53;;
60853;SDS011;48554;50.766;2.900;2022-08-19T14:20:59;4.27;;;1.30;;
60853;SDS011;48554;50.766;2.900;2022-08-19T14:23:19;3.90;;;1.07;;
60853;SDS011;48554;50.766;2.900;2022-08-19T14:25:40;1.77;;;1.00;;
60853;SDS011;48554;50.766;2.900;2022-08-19T14:28:01;2.40;;;1.17;;
60853;SDS011;48554;50.766;2.900;2022-08-19T14:30:23;3.58;;;1.20;;
60853;SDS011;48554;50.766;2.900;2022-08-19T14:32:45;1.52;;;0.77;;
60853;SDS011;48554;50.766;2.900;2022-08-19T14:35:05;2.43;;;0.70;;